sensor_id;sensor_type;location;lat;lon;timestamp;P1;durP1;ratioP1;P2;durP2;ratioP2
57307;SDS011;43152;50.968;18.214;2022-12-18T00:00:49;36.80;;;9.20;;
57307;SDS011;43152;50.968;18.214;2022-12-18T00:10:39;36.70;;;4.10;;
57307;SDS011;43152;50.968;18.214;2022-12-18T00:20:21;24.50;;;7.80;;
57307;SDS011;43152;50.968;18.214;2022-12-18T00:30:07;42.20;;;9.70;;
57307;SDS011;43152;50.968;18.214;2022-12-18T00:39:50;38.00;;;8.90;;
57307;SDS011;43152;50.968;18.214;2022-12-18T00:49:50;43.60;;;10.40;;
57307;SDS011;43152;50.968;18.214;2022-12-18T00:59:34;32.00;;;10.30;;
57307;SDS011;43152;50.968;18.214;2022-12-18T01:09:19;60.30;;;13.50;;
57307;SDS011;43152;50.968;18.214;2022-12-18T01:27:45;40.40;;;11.30;;
57307;SDS011;43152;50.968;18.214;2022-12-18T01:37:28;55.80;;;9.90;;
57307;SDS011;43152;50.968;18.214;2022-12-18T01:47:12;26.30;;;5.20;;
57307;SDS011;43152;50.968;18.214;2022-12-18T01:57:06;38.80;;;8.70;;
57307;SDS011;43152;50.968;18.214;2022-12-18T02:06:51;40.90;;;10.50;;
57307;SDS011;43152;50.968;18.214;2022-12-18T02:24:38;39.10;;;10.20;;
57307;SDS011;43152;50.968;18.214;2022-12-18T02:34:38;36.10;;;9.20;;
57307;SDS011;43152;50.968;18.214;2022-12-18T02:44:23;27.60;;;6.50;;
57307;SDS011;43152;50.968;18.214;2022-12-18T02:54:28;41.70;;;12.00;;
57307;SDS011;43152;50.968;18.214;2022-12-18T03:05:10;41.30;;;10.10;;
57307;SDS011;43152;50.968;18.214;2022-12-18T03:15:24;12.50;;;4.20;;
57307;SDS011;43152;50.968;18.214;2022-12-18T03:25:14;34.10;;;9.20;;
57307;SDS011;43152;50.968;18.214;2022-12-18T03:35:06;29.60;;;7.80;;
57307;SDS011;43152;50.968;18.214;2022-12-18T03:45:11;30.90;;;6.70;;
57307;SDS011;43152;50.968;18.214;2022-12-18T03:55:33;24.40;;;7.70;;
57307;SDS011;43152;50.968;18.214;2022-12-18T04:05:17;33.00;;;7.20;;
57307;SDS011;43152;50.968;18.214;2022-12-18T04:22:22;45.80;;;9.50;;
57307;SDS011;43152;50.968;18.214;2022-12-18T04:32:05;32.00;;;7.40;;
57307;SDS011;43152;50.968;18.214;2022-12-18T04:41:47;29.70;;;7.00;;
57307;SDS011;43152;50.968;18.214;2022-12-18T04:51:29;26.20;;;9.60;;
57307;SDS011;43152;50.968;18.214;2022-12-18T05:01:11;19.40;;;2.70;;
57307;SDS011;43152;50.968;18.214;2022-12-18T05:10:59;38.20;;;7.60;;
57307;SDS011;43152;50.968;18.214;2022-12-18T05:20:45;37.10;;;9.60;;
57307;SDS011;43152;50.968;18.214;2022-12-18T05:30:29;31.70;;;6.10;;
57307;SDS011;43152;50.968;18.214;2022-12-18T05:40:11;28.70;;;9.40;;
57307;SDS011;43152;50.968;18.214;2022-12-18T05:49:54;39.00;;;8.40;;
57307;SDS011;43152;50.968;18.214;2022-12-18T05:59:35;41.30;;;8.50;;
57307;SDS011;43152;50.968;18.214;2022-12-18T06:09:19;20.30;;;5.40;;
57307;SDS011;43152;50.968;18.214;2022-12-18T06:26:19;19.60;;;6.10;;
57307;SDS011;43152;50.968;18.214;2022-12-18T06:36:02;36.10;;;7.40;;
57307;SDS011;43152;50.968;18.214;2022-12-18T06:46:00;35.80;;;7.10;;
57307;SDS011;43152;50.968;18.214;2022-12-18T07:02:59;43.50;;;8.40;;
57307;SDS011;43152;50.968;18.214;2022-12-18T07:12:40;37.90;;;9.40;;
57307;SDS011;43152;50.968;18.214;2022-12-18T07:22:24;27.20;;;7.60;;
57307;SDS011;43152;50.968;18.214;2022-12-18T07:32:06;41.90;;;7.50;;
57307;SDS011;43152;50.968;18.214;2022-12-18T07:41:50;267.50;;;52.60;;
57307;SDS011;43152;50.968;18.214;2022-12-18T07:44:34;235.90;;;75.20;;
57307;SDS011;43152;50.968;18.214;2022-12-18T07:54:16;256.10;;;72.00;;
57307;SDS011;43152;50.968;18.214;2022-12-18T08:11:18;159.80;;;41.40;;
57307;SDS011;43152;50.968;18.214;2022-12-18T08:21:21;62.70;;;16.90;;
57307;SDS011;43152;50.968;18.214;2022-12-18T08:31:10;116.50;;;24.60;;
57307;SDS011;43152;50.968;18.214;2022-12-18T08:41:06;73.70;;;16.30;;
57307;SDS011;43152;50.968;18.214;2022-12-18T08:51:18;56.50;;;11.90;;
57307;SDS011;43152;50.968;18.214;2022-12-18T09:01:04;120.90;;;35.30;;
57307;SDS011;43152;50.968;18.214;2022-12-18T09:10:54;73.80;;;15.50;;
57307;SDS011;43152;50.968;18.214;2022-12-18T09:20:38;116.10;;;27.40;;
57307;SDS011;43152;50.968;18.214;2022-12-18T09:30:30;428.70;;;90.00;;
57307;SDS011;43152;50.968;18.214;2022-12-18T09:40:19;97.40;;;25.90;;
57307;SDS011;43152;50.968;18.214;2022-12-18T09:57:56;41.50;;;11.90;;
57307;SDS011;43152;50.968;18.214;2022-12-18T10:08:05;66.50;;;18.80;;
57307;SDS011;43152;50.968;18.214;2022-12-18T10:36:12;81.30;;;26.20;;
57307;SDS011;43152;50.968;18.214;2022-12-18T10:46:14;220.10;;;47.40;;
57307;SDS011;43152;50.968;18.214;2022-12-18T10:56:18;136.30;;;37.10;;
57307;SDS011;43152;50.968;18.214;2022-12-18T11:06:20;59.00;;;20.20;;
57307;SDS011;43152;50.968;18.214;2022-12-18T11:16:23;36.90;;;13.90;;
57307;SDS011;43152;50.968;18.214;2022-12-18T11:26:12;158.30;;;48.10;;
57307;SDS011;43152;50.968;18.214;2022-12-18T11:36:45;120.70;;;31.70;;
57307;SDS011;43152;50.968;18.214;2022-12-18T11:57:44;121.70;;;38.60;;
57307;SDS011;43152;50.968;18.214;2022-12-18T12:08:37;127.40;;;31.70;;
57307;SDS011;43152;50.968;18.214;2022-12-18T12:18:54;99.10;;;22.90;;
57307;SDS011;43152;50.968;18.214;2022-12-18T12:39:13;153.80;;;44.60;;
57307;SDS011;43152;50.968;18.214;2022-12-18T12:49:20;75.90;;;23.50;;
57307;SDS011;43152;50.968;18.214;2022-12-18T13:36:09;69.80;;;22.50;;
57307;SDS011;43152;50.968;18.214;2022-12-18T13:56:49;76.70;;;23.60;;
57307;SDS011;43152;50.968;18.214;2022-12-18T14:06:54;75.80;;;32.10;;
57307;SDS011;43152;50.968;18.214;2022-12-18T14:17:10;207.70;;;42.80;;
57307;SDS011;43152;50.968;18.214;2022-12-18T14:34:30;128.60;;;41.70;;
57307;SDS011;43152;50.968;18.214;2022-12-18T14:44:16;103.40;;;35.60;;
57307;SDS011;43152;50.968;18.214;2022-12-18T14:54:20;44.10;;;13.10;;
57307;SDS011;43152;50.968;18.214;2022-12-18T15:14:40;41.30;;;11.90;;
57307;SDS011;43152;50.968;18.214;2022-12-18T15:24:45;59.30;;;17.80;;
57307;SDS011;43152;50.968;18.214;2022-12-18T15:52:32;43.00;;;11.70;;
57307;SDS011;43152;50.968;18.214;2022-12-18T16:02:41;68.60;;;16.60;;
57307;SDS011;43152;50.968;18.214;2022-12-18T16:12:29;66.50;;;14.90;;
57307;SDS011;43152;50.968;18.214;2022-12-18T16:22:15;32.20;;;12.40;;
57307;SDS011;43152;50.968;18.214;2022-12-18T16:32:04;141.50;;;24.70;;
57307;SDS011;43152;50.968;18.214;2022-12-18T16:41:51;111.30;;;23.20;;
57307;SDS011;43152;50.968;18.214;2022-12-18T16:51:36;50.50;;;17.60;;
57307;SDS011;43152;50.968;18.214;2022-12-18T17:01:19;92.50;;;24.90;;
57307;SDS011;43152;50.968;18.214;2022-12-18T17:11:12;55.60;;;15.40;;
57307;SDS011;43152;50.968;18.214;2022-12-18T17:21:00;106.00;;;24.10;;
57307;SDS011;43152;50.968;18.214;2022-12-18T17:30:51;37.00;;;13.20;;
57307;SDS011;43152;50.968;18.214;2022-12-18T17:40:37;75.50;;;12.40;;
57307;SDS011;43152;50.968;18.214;2022-12-18T17:50:21;144.40;;;41.40;;
57307;SDS011;43152;50.968;18.214;2022-12-18T18:00:04;63.80;;;22.90;;
57307;SDS011;43152;50.968;18.214;2022-12-18T18:21:04;125.80;;;32.70;;
57307;SDS011;43152;50.968;18.214;2022-12-18T18:30:57;133.40;;;33.00;;
57307;SDS011;43152;50.968;18.214;2022-12-18T18:40:40;132.70;;;44.10;;
57307;SDS011;43152;50.968;18.214;2022-12-18T18:50:35;182.20;;;38.80;;
57307;SDS011;43152;50.968;18.214;2022-12-18T19:00:17;85.30;;;28.50;;
57307;SDS011;43152;50.968;18.214;2022-12-18T19:09:58;134.40;;;39.40;;
57307;SDS011;43152;50.968;18.214;2022-12-18T19:20:02;116.10;;;25.80;;
57307;SDS011;43152;50.968;18.214;2022-12-18T19:29:45;161.50;;;44.20;;
57307;SDS011;43152;50.968;18.214;2022-12-18T19:39:30;106.60;;;32.00;;
57307;SDS011;43152;50.968;18.214;2022-12-18T19:49:14;192.30;;;51.50;;
57307;SDS011;43152;50.968;18.214;2022-12-18T19:59:01;123.20;;;35.50;;
57307;SDS011;43152;50.968;18.214;2022-12-18T20:08:54;107.10;;;28.60;;
57307;SDS011;43152;50.968;18.214;2022-12-18T20:18:38;61.20;;;23.30;;
57307;SDS011;43152;50.968;18.214;2022-12-18T20:28:22;63.00;;;21.20;;
57307;SDS011;43152;50.968;18.214;2022-12-18T20:38:05;74.80;;;23.80;;
57307;SDS011;43152;50.968;18.214;2022-12-18T20:53:32;146.20;;;35.10;;
57307;SDS011;43152;50.968;18.214;2022-12-18T21:03:26;135.10;;;35.70;;
57307;SDS011;43152;50.968;18.214;2022-12-18T21:13:08;100.40;;;32.50;;
57307;SDS011;43152;50.968;18.214;2022-12-18T21:22:51;101.90;;;26.60;;
57307;SDS011;43152;50.968;18.214;2022-12-18T21:32:33;125.90;;;30.10;;
57307;SDS011;43152;50.968;18.214;2022-12-18T21:42:16;95.50;;;28.80;;
57307;SDS011;43152;50.968;18.214;2022-12-18T21:52:20;46.30;;;17.90;;
57307;SDS011;43152;50.968;18.214;2022-12-18T22:02:08;94.60;;;27.90;;
57307;SDS011;43152;50.968;18.214;2022-12-18T22:11:53;72.70;;;22.80;;
57307;SDS011;43152;50.968;18.214;2022-12-18T22:21:36;62.90;;;19.40;;
57307;SDS011;43152;50.968;18.214;2022-12-18T22:31:40;72.20;;;18.10;;
57307;SDS011;43152;50.968;18.214;2022-12-18T22:41:27;64.50;;;19.00;;
57307;SDS011;43152;50.968;18.214;2022-12-18T22:51:15;83.20;;;21.50;;
57307;SDS011;43152;50.968;18.214;2022-12-18T23:21:50;108.40;;;25.30;;
57307;SDS011;43152;50.968;18.214;2022-12-18T23:31:35;53.50;;;17.70;;
57307;SDS011;43152;50.968;18.214;2022-12-18T23:41:22;24.00;;;11.80;;
57307;SDS011;43152;50.968;18.214;2022-12-18T23:51:13;39.90;;;17.00;;
